Time;durP1;ratioP1;P1;durP2;ratioP2;P2;SDS_P1;SDS_P2;PMS_P1;PMS_P2;Temp;Humidity;BMP_temperature;BMP_pressure;BME280_temperature;BME280_humidity;BME280_pressure;Samples;Min_cycle;Max_cycle;Signal;HPM_P1;HPM_P2
2023/03/29 00:01:08;;;;;;;0.00;0.00;;;;;;;11.62;100.00;101367.84;2076053;28;20143;-71
2023/03/29 00:02:32;;;;;;;0.00;0.00;;;;;;;11.58;100.00;101368.66;2085651;28;20057;-71
2023/03/29 00:03:54;;;;;;;0.25;0.25;;;;;;;11.52;100.00;101368.53;2077490;28;20153;-71
2023/03/29 00:05:18;;;;;;;0.05;0.05;;;;;;;11.53;100.00;101362.38;2077135;28;20068;-71
2023/03/29 00:06:40;;;;;;;1.00;0.43;;;;;;;11.49;100.00;101373.72;2078823;28;20049;-71
2023/03/29 00:08:03;;;;;;;0.80;0.47;;;;;;;11.45;100.00;101359.56;2083093;28;20041;-71
2023/03/29 00:09:25;;;;;;;0.00;0.00;;;;;;;11.45;100.00;101361.31;2079780;28;20057;-71
2023/03/29 00:10:50;;;;;;;0.22;0.22;;;;;;;11.44;100.00;101368.34;2077735;28;20044;-71
2023/03/29 00:12:13;;;;;;;0.00;0.00;;;;;;;11.43;100.00;101376.25;2067394;28;20053;-71
2023/03/29 00:13:34;;;;;;;0.15;0.10;;;;;;;11.42;100.00;101356.84;2070391;28;20053;-71
2023/03/29 00:14:57;;;;;;;0.28;0.28;;;;;;;11.45;100.00;101375.44;2076905;28;20506;-71
2023/03/29 00:16:19;;;;;;;0.20;0.05;;;;;;;11.47;100.00;101371.09;2070156;28;20041;-71
2023/03/29 00:17:44;;;;;;;0.00;0.00;;;;;;;11.48;100.00;101369.34;2070046;28;20074;-72
2023/03/29 00:19:05;;;;;;;0.55;0.55;;;;;;;11.48;100.00;101367.59;2075430;28;20123;-71
2023/03/29 00:20:28;;;;;;;0.85;0.32;;;;;;;11.50;100.00;101373.78;2078428;28;20531;-71
2023/03/29 00:21:51;;;;;;;0.20;0.15;;;;;;;11.51;100.00;101369.38;2073608;28;20057;-71
2023/03/29 00:23:13;;;;;;;0.00;0.00;;;;;;;11.52;100.00;101368.53;2083278;28;20497;-71
2023/03/29 00:24:35;;;;;;;0.00;0.00;;;;;;;11.56;100.00;101383.59;2086643;28;20056;-71
2023/03/29 00:25:57;;;;;;;0.00;0.00;;;;;;;11.57;100.00;101380.97;2086478;28;20048;-70
2023/03/29 00:27:18;;;;;;;0.30;0.30;;;;;;;11.60;100.00;101382.81;2078330;28;20034;-71
2023/03/29 00:28:41;;;;;;;0.00;0.00;;;;;;;11.61;100.00;101366.09;2069874;28;20081;-71
2023/03/29 00:30:04;;;;;;;0.38;0.20;;;;;;;11.61;100.00;101365.19;2067187;28;20068;-71
2023/03/29 00:31:27;;;;;;;0.35;0.35;;;;;;;11.58;100.00;101356.31;2075503;28;20110;-70
2023/03/29 00:32:51;;;;;;;0.00;0.00;;;;;;;11.56;100.00;101365.06;2077009;28;20136;-70
2023/03/29 00:34:13;;;;;;;0.88;0.45;;;;;;;11.54;100.00;101358.88;2077776;28;20169;-71
2023/03/29 00:35:37;;;;;;;0.00;0.00;;;;;;;11.53;100.00;101362.38;2062133;28;20104;-71
2023/03/29 00:37:00;;;;;;;0.05;0.05;;;;;;;11.53;100.00;101357.09;2063011;28;20046;-70
2023/03/29 00:38:21;;;;;;;0.00;0.00;;;;;;;11.52;100.00;101358.84;2081132;28;20041;-71
2023/03/29 00:39:44;;;;;;;0.00;0.00;;;;;;;11.56;100.00;101351.84;2086617;28;20485;-71
2023/03/29 00:41:06;;;;;;;0.13;0.13;;;;;;;11.58;100.00;101361.63;2078268;28;20054;-70
2023/03/29 00:42:29;;;;;;;0.00;0.00;;;;;;;11.56;100.00;101362.44;2083356;28;20437;-71
2023/03/29 00:43:52;;;;;;;0.13;0.13;;;;;;;11.51;100.00;101362.34;2078272;28;20049;-71
2023/03/29 00:45:19;;;;;;;0.43;0.30;;;;;;;11.49;100.00;101363.16;2078339;28;20049;-70
2023/03/29 00:46:41;;;;;;;0.20;0.20;;;;;;;11.49;100.00;101350.84;2076690;28;20053;-71
2023/03/29 00:48:07;;;;;;;0.65;0.40;;;;;;;11.49;100.00;101360.50;2085215;28;20148;-71
2023/03/29 00:49:29;;;;;;;0.08;0.05;;;;;;;11.50;100.00;101363.19;2072408;28;20049;-70
2023/03/29 00:50:56;;;;;;;0.80;0.38;;;;;;;11.48;100.00;101362.28;2074428;28;20057;-71
2023/03/29 00:52:20;;;;;;;0.00;0.00;;;;;;;11.47;100.00;101346.41;2077976;28;20057;-70
2023/03/29 00:53:47;;;;;;;0.00;0.00;;;;;;;11.47;100.00;101355.22;2075469;28;20095;-70
2023/03/29 00:55:15;;;;;;;0.00;0.00;;;;;;;11.50;100.00;101363.19;2070433;28;20754;-70
2023/03/29 00:56:40;;;;;;;0.13;0.13;;;;;;;11.53;100.00;101341.22;2067187;28;20066;-70
2023/03/29 00:58:04;;;;;;;0.08;0.03;;;;;;;11.53;100.00;101343.88;2075114;28;20038;-71
2023/03/29 00:59:31;;;;;;;0.03;0.03;;;;;;;11.51;100.00;101337.66;2070105;28;20438;-70
2023/03/29 01:01:00;;;;;;;4.38;0.20;;;;;;;11.52;100.00;101336.81;2070987;28;20058;-71
2023/03/29 01:02:26;;;;;;;1.20;0.20;;;;;;;11.53;100.00;101351.81;2078834;28;20510;-70
2023/03/29 01:03:55;;;;;;;0.00;0.00;;;;;;;11.53;100.00;101351.81;2075870;28;20049;-70
2023/03/29 01:05:21;;;;;;;1.10;0.15;;;;;;;11.53;100.00;101341.22;2077464;28;20048;-70
2023/03/29 01:06:50;;;;;;;0.00;0.00;;;;;;;11.48;100.00;101351.72;2077865;28;20056;-70
2023/03/29 01:08:20;;;;;;;0.05;0.05;;;;;;;11.46;100.00;101353.44;2070828;28;20100;-70
2023/03/29 01:09:46;;;;;;;0.75;0.32;;;;;;;11.44;100.00;101356.88;2092462;28;20055;-70
2023/03/29 01:11:15;;;;;;;0.00;0.00;;;;;;;11.42;100.00;101350.69;2073546;28;20061;-70
2023/03/29 01:12:41;;;;;;;0.08;0.08;;;;;;;11.37;100.00;101354.97;2082750;28;20045;-70
2023/03/29 01:14:06;;;;;;;0.20;0.20;;;;;;;11.30;100.00;101345.13;2085217;28;20060;-70
2023/03/29 01:15:28;;;;;;;0.70;0.57;;;;;;;11.25;100.00;101357.34;2080791;28;20041;-70
2023/03/29 01:16:52;;;;;;;0.05;0.03;;;;;;;11.21;100.00;101350.22;2072488;28;20379;-70
2023/03/29 01:18:16;;;;;;;0.10;0.10;;;;;;;11.17;100.00;101355.41;2069885;28;20407;-69
2023/03/29 01:19:45;;;;;;;0.00;0.00;;;;;;;11.19;100.00;101351.06;2072418;28;20073;-69
2023/03/29 01:21:18;;;;;;;0.55;0.30;;;;;;;11.19;100.00;101363.38;2077715;28;20048;-70
2023/03/29 01:22:54;;;;;;;0.22;0.22;;;;;;;11.18;100.00;101362.50;2065629;28;20527;-70
2023/03/29 01:24:49;;;;;;;0.20;0.13;;;;;;;11.14;100.00;101357.13;2085977;28;20041;-70
2023/03/29 01:26:24;;;;;;;0.10;0.10;;;;;;;11.16;100.00;101358.91;2057001;28;20134;-70
2023/03/29 01:28:01;;;;;;;;;;;;;;;11.15;100.00;101365.09;2078676;28;20626;-70
2023/03/29 01:29:32;;;;;;;0.00;0.00;;;;;;;11.19;100.00;101351.06;2084594;28;19964;-70
2023/03/29 01:31:02;;;;;;;0.00;0.00;;;;;;;11.22;100.00;101334.41;2078742;28;20046;-69
2023/03/29 01:32:34;;;;;;;0.38;0.38;;;;;;;11.21;100.00;101360.78;2073429;28;20512;-69
2023/03/29 01:34:02;;;;;;;0.75;0.13;;;;;;;11.20;100.00;101357.25;2085939;28;20033;-69
2023/03/29 01:35:31;;;;;;;0.20;0.20;;;;;;;11.21;100.00;101350.22;2078556;28;20076;-70
2023/03/29 01:36:59;;;;;;;0.32;0.30;;;;;;;11.21;100.00;101366.06;2081930;28;20079;-70
2023/03/29 01:38:27;;;;;;;1.08;0.63;;;;;;;11.23;100.00;101359.94;2078793;28;20061;-69
2023/03/29 01:39:49;;;;;;;0.00;0.00;;;;;;;11.23;100.00;101365.22;2078541;28;20061;-70
2023/03/29 01:41:12;;;;;;;0.43;0.28;;;;;;;11.21;100.00;101369.63;2077770;28;20053;-70
2023/03/29 01:42:45;;;;;;;0.88;0.40;;;;;;;11.21;100.00;101379.28;2069864;28;20442;-70
2023/03/29 01:44:13;;;;;;;0.13;0.13;;;;;;;11.22;100.00;101366.13;2071550;28;20045;-69
2023/03/29 01:45:44;;;;;;;0.35;0.35;;;;;;;11.24;100.00;101368.78;2076700;28;20045;-70
2023/03/29 01:47:12;;;;;;;0.00;0.00;;;;;;;11.24;100.00;101371.41;2078716;28;20049;-69
2023/03/29 01:48:42;;;;;;;1.05;0.13;;;;;;;11.24;100.00;101374.06;2069009;28;20101;-69
2023/03/29 01:50:11;;;;;;;1.08;0.55;;;;;;;11.23;100.00;101375.81;2068976;28;20121;-69
2023/03/29 01:51:40;;;;;;;0.10;0.10;;;;;;;11.23;100.00;101370.50;2068726;28;20576;-70
2023/03/29 01:53:08;;;;;;;0.00;0.00;;;;;;;11.21;100.00;101361.69;2062180;28;20573;-70
2023/03/29 01:54:35;;;;;;;0.00;0.00;;;;;;;11.22;100.00;101371.41;2068800;28;20054;-69
2023/03/29 01:56:04;;;;;;;0.22;0.17;;;;;;;11.21;100.00;101384.56;2061908;28;20129;-69
2023/03/29 01:57:26;;;;;;;0.20;0.20;;;;;;;11.22;100.00;101389.00;2072625;28;20494;-69
2023/03/29 01:58:53;;;;;;;0.70;0.17;;;;;;;11.23;100.00;101377.53;2068690;28;20057;-70
2023/03/29 02:00:19;;;;;;;0.57;0.45;;;;;;;11.23;100.00;101383.72;2067256;28;20058;-69
2023/03/29 02:01:49;;;;;;;3.55;1.10;;;;;;;11.22;100.00;101375.78;2058478;28;20050;-69
2023/03/29 02:03:16;;;;;;;0.00;0.00;;;;;;;11.19;100.00;101364.28;2077051;28;20037;-70
2023/03/29 02:04:44;;;;;;;0.17;0.17;;;;;;;11.16;100.00;101365.94;2072109;28;20561;-69
2023/03/29 02:06:11;;;;;;;0.10;0.10;;;;;;;11.16;100.00;101372.13;2070202;28;20053;-70
2023/03/29 02:07:36;;;;;;;0.00;0.00;;;;;;;11.14;100.00;101378.25;2083952;28;20060;-70
2023/03/29 02:08:59;;;;;;;0.15;0.10;;;;;;;11.14;100.00;101378.25;2078004;28;20128;-69
2023/03/29 02:10:24;;;;;;;0.00;0.00;;;;;;;11.10;100.00;101377.28;2069644;28;20049;-70
2023/03/29 02:11:47;;;;;;;0.35;0.35;;;;;;;11.06;100.00;101388.63;2082478;28;20040;-70
2023/03/29 02:13:10;;;;;;;0.00;0.00;;;;;;;11.01;100.00;101371.78;2077533;28;20056;-69
2023/03/29 02:14:31;;;;;;;0.00;0.00;;;;;;;10.96;100.00;101375.19;2067643;28;20096;-70
2023/03/29 02:15:53;;;;;;;0.35;0.32;;;;;;;10.92;100.00;101362.75;2073444;28;20989;-70
2023/03/29 02:17:18;;;;;;;0.25;0.25;;;;;;;10.86;100.00;101363.50;2063624;28;20053;-69
2023/03/29 02:18:45;;;;;;;0.00;0.00;;;;;;;10.81;100.00;101383.63;2074859;28;20140;-70
2023/03/29 02:20:16;;;;;;;0.00;0.00;;;;;;;10.81;100.00;101378.34;2069977;28;20050;-69
2023/03/29 02:21:46;;;;;;;0.00;0.00;;;;;;;10.82;100.00;101389.81;2076920;28;20060;-70
2023/03/29 02:23:14;;;;;;;0.65;0.52;;;;;;;10.83;100.00;101412.72;2065654;28;20049;-69
2023/03/29 02:24:36;;;;;;;0.57;0.57;;;;;;;10.85;100.00;101400.44;2088508;28;20064;-70
2023/03/29 02:25:59;;;;;;;0.00;0.00;;;;;;;10.84;100.00;101388.06;2069856;28;20046;-70
2023/03/29 02:27:20;;;;;;;0.10;0.10;;;;;;;10.84;100.00;101411.84;2066621;28;20049;-70
2023/03/29 02:28:43;;;;;;;0.15;0.00;;;;;;;10.79;100.00;101399.44;2063870;28;20136;-70
2023/03/29 02:30:07;;;;;;;0.10;0.10;;;;;;;10.76;100.00;101385.28;2083138;28;20113;-69
2023/03/29 02:31:36;;;;;;;0.00;0.00;;;;;;;10.73;100.00;101414.22;2070827;28;20046;-70
2023/03/29 02:33:08;;;;;;;0.32;0.20;;;;;;;10.70;100.00;101406.22;2068486;28;20687;-70
2023/03/29 02:34:36;;;;;;;0.00;0.00;;;;;;;10.69;100.00;101418.56;2070777;28;20073;-69
2023/03/29 02:36:03;;;;;;;0.10;0.10;;;;;;;10.69;100.00;101423.84;2067906;28;20046;-70
2023/03/29 02:37:29;;;;;;;0.03;0.03;;;;;;;10.70;100.00;101407.09;2069167;28;20033;-70
2023/03/29 02:38:53;;;;;;;0.00;0.00;;;;;;;10.69;100.00;101410.63;2076845;28;20041;-70
2023/03/29 02:40:15;;;;;;;0.25;0.10;;;;;;;10.66;100.00;101401.72;2061369;28;20482;-70
2023/03/29 02:41:39;;;;;;;0.00;0.00;;;;;;;10.66;100.00;101418.47;2068171;28;20548;-70
2023/03/29 02:43:04;;;;;;;0.00;0.00;;;;;;;10.66;100.00;101412.28;2074353;28;20386;-70
2023/03/29 02:44:28;;;;;;;0.00;0.00;;;;;;;10.67;100.00;101414.06;2060407;28;20133;-69
2023/03/29 02:45:52;;;;;;;0.10;0.10;;;;;;;10.65;100.00;101418.41;2074617;28;20461;-70
2023/03/29 02:47:19;;;;;;;0.00;0.00;;;;;;;10.65;100.00;101423.69;2076847;28;20064;-69
2023/03/29 02:48:46;;;;;;;0.00;0.00;;;;;;;10.64;100.00;101416.63;2069850;28;20498;-70
2023/03/29 02:50:08;;;;;;;1.55;0.60;;;;;;;10.62;100.00;101421.00;2066129;28;20095;-70
2023/03/29 02:51:34;;;;;;;3.50;1.13;;;;;;;10.59;100.00;101423.53;2084065;28;20053;-70
2023/03/29 02:53:01;;;;;;;0.10;0.10;;;;;;;10.53;100.00;101420.75;2086260;28;20060;-70
2023/03/29 02:54:30;;;;;;;1.92;0.40;;;;;;;10.46;100.00;101419.69;2070622;28;20080;-70
2023/03/29 02:55:52;;;;;;;0.00;0.00;;;;;;;10.44;100.00;101415.19;2086496;28;20057;-70
2023/03/29 02:57:15;;;;;;;0.00;0.00;;;;;;;10.44;100.00;101415.19;2070783;28;20497;-70
2023/03/29 02:58:38;;;;;;;0.00;0.00;;;;;;;10.44;100.00;101429.28;2066881;28;20042;-69
2023/03/29 03:00:05;;;;;;;0.00;0.00;;;;;;;10.45;100.00;101441.66;2069203;28;20084;-70
2023/03/29 03:01:28;;;;;;;0.30;0.30;;;;;;;10.49;100.00;101429.44;2069832;28;20038;-70
2023/03/29 03:02:50;;;;;;;0.25;0.00;;;;;;;10.51;100.00;101433.88;2090343;28;20041;-69
2023/03/29 03:04:16;;;;;;;0.00;0.00;;;;;;;10.49;100.00;101443.53;2081456;28;20125;-70
2023/03/29 03:05:38;;;;;;;0.43;0.30;;;;;;;10.48;100.00;101439.09;2069505;28;20454;-70
2023/03/29 03:07:03;;;;;;;0.10;0.10;;;;;;;10.45;100.00;101435.47;2077243;28;20565;-70
2023/03/29 03:08:25;;;;;;;0.13;0.13;;;;;;;10.41;100.00;101437.16;2082185;28;20120;-69
2023/03/29 03:09:47;;;;;;;0.13;0.00;;;;;;;10.38;100.00;101437.94;2078998;28;20136;-70
2023/03/29 03:11:10;;;;;;;0.17;0.17;;;;;;;10.36;100.00;101434.41;2068842;28;20038;-70
2023/03/29 03:12:31;;;;;;;0.10;0.10;;;;;;;10.36;100.00;101430.88;2059619;28;20104;-70
2023/03/29 03:13:53;;;;;;;0.00;0.00;;;;;;;10.37;100.00;101445.84;2076431;28;20037;-69
2023/03/29 03:15:15;;;;;;;0.00;0.00;;;;;;;10.37;100.00;101459.91;2067530;28;20091;-70
2023/03/29 03:16:37;;;;;;;0.00;0.00;;;;;;;10.38;100.00;101447.59;2072709;28;20136;-69
2023/03/29 03:17:59;;;;;;;0.57;0.45;;;;;;;10.37;100.00;101449.34;2076261;28;20144;-70
2023/03/29 03:19:24;;;;;;;;;;;;;;;10.33;100.00;101444.84;2065691;28;20477;-69
2023/03/29 03:20:55;;;;;;;0.05;0.05;;;;;;;10.33;100.00;101447.50;2068450;28;19991;-70
2023/03/29 03:22:18;;;;;;;0.30;0.30;;;;;;;10.33;100.00;101468.59;2068658;28;20049;-70
2023/03/29 03:23:39;;;;;;;0.00;0.00;;;;;;;10.32;100.00;101448.34;2066381;28;20108;-70
2023/03/29 03:25:02;;;;;;;0.55;0.32;;;;;;;10.30;100.00;101471.19;2069127;28;20540;-70
2023/03/29 03:26:28;;;;;;;0.00;0.00;;;;;;;10.31;100.00;101462.38;2074681;28;20041;-70
2023/03/29 03:27:52;;;;;;;0.10;0.10;;;;;;;10.36;100.00;101452.88;2071072;28;20053;-70
2023/03/29 03:29:17;;;;;;;0.10;0.10;;;;;;;10.40;100.00;101453.84;2076341;28;20048;-70
2023/03/29 03:31:14;;;;;;;0.05;0.05;;;;;;;10.40;100.00;101456.47;2079849;28;20038;-70
2023/03/29 03:32:53;;;;;;;0.00;0.00;;;;;;;10.41;100.00;101487.31;2079513;28;20140;-70
2023/03/29 03:34:16;;;;;;;0.00;0.00;;;;;;;10.39;100.00;101476.69;2076991;28;20041;-71
2023/03/29 03:35:55;;;;;;;0.20;0.20;;;;;;;10.36;100.00;101450.22;2078534;28;20416;-71
2023/03/29 03:37:18;;;;;;;1.00;0.45;;;;;;;10.32;100.00;101469.44;2071783;28;20050;-70
2023/03/29 03:38:42;;;;;;;0.00;0.00;;;;;;;10.29;100.00;101461.47;2076377;28;20061;-70
2023/03/29 03:40:10;;;;;;;0.70;0.45;;;;;;;10.24;100.00;101465.69;2076230;28;20077;-70
2023/03/29 03:41:34;;;;;;;0.22;0.22;;;;;;;10.19;100.00;101467.31;2077793;28;20143;-70
2023/03/29 03:42:57;;;;;;;0.10;0.10;;;;;;;10.17;100.00;101474.31;2084456;28;20060;-70
2023/03/29 03:44:19;;;;;;;0.10;0.10;;;;;;;10.15;100.00;101472.44;2070438;28;20041;-70
2023/03/29 03:45:46;;;;;;;0.10;0.10;;;;;;;10.12;100.00;101477.63;2069281;28;20041;-70
2023/03/29 03:47:13;;;;;;;0.22;0.20;;;;;;;10.09;100.00;101473.16;2086940;28;20561;-70
2023/03/29 03:48:36;;;;;;;0.20;0.20;;;;;;;10.08;100.00;101475.75;2075666;28;20045;-69
2023/03/29 03:50:06;;;;;;;2.58;0.55;;;;;;;10.07;100.00;101476.59;2095989;28;20151;-69
2023/03/29 03:51:30;;;;;;;0.05;0.05;;;;;;;10.09;100.00;101498.66;2078883;28;20093;-69
2023/03/29 03:52:51;;;;;;;0.00;0.00;;;;;;;10.11;100.00;101496.97;2076193;28;20103;-70
2023/03/29 03:54:15;;;;;;;0.17;0.10;;;;;;;10.13;100.00;101492.59;2061227;28;20050;-70
2023/03/29 03:56:13;;;;;;;0.00;0.00;;;;;;;10.14;100.00;101503.19;2080898;28;20057;-70
2023/03/29 03:58:02;;;;;;;1.08;0.55;;;;;;;10.17;100.00;101505.97;2080920;28;20461;-70
2023/03/29 03:59:25;;;;;;;1.13;0.52;;;;;;;10.20;100.00;101523.63;2066255;28;20092;-70
2023/03/29 04:01:10;;;;;;;0.10;0.10;;;;;;;10.20;100.00;101506.06;2070011;28;20049;-70
2023/03/29 04:02:39;;;;;;;0.60;0.55;;;;;;;10.19;100.00;101506.91;2077733;28;20045;-69
2023/03/29 04:04:01;;;;;;;0.17;0.17;;;;;;;10.16;100.00;101527.00;2079600;28;20728;-70
2023/03/29 04:05:24;;;;;;;0.85;0.75;;;;;;;10.13;100.00;101511.97;2086552;28;20079;-69
2023/03/29 04:06:47;;;;;;;0.10;0.10;;;;;;;10.13;100.00;101535.69;2072218;28;20034;-70
2023/03/29 04:08:33;;;;;;;0.00;0.00;;;;;;;10.12;100.00;101530.38;2086244;28;20375;-69
2023/03/29 04:10:16;;;;;;;2.67;0.35;;;;;;;10.11;100.00;101523.34;2089164;28;20053;-69
2023/03/29 04:11:55;;;;;;;0.10;0.10;;;;;;;10.10;100.00;101526.81;2076194;28;20034;-70
2023/03/29 04:13:17;;;;;;;3.20;0.38;;;;;;;10.08;100.00;101542.59;2076182;28;20033;-70
2023/03/29 04:15:00;;;;;;;1.85;0.20;;;;;;;10.07;100.00;101532.88;2079950;28;20086;-70
2023/03/29 04:16:22;;;;;;;0.03;0.03;;;;;;;10.07;100.00;101548.72;2071675;28;20100;-70
2023/03/29 04:17:45;;;;;;;0.35;0.13;;;;;;;10.06;100.00;101549.56;2073582;28;20437;-70
2023/03/29 04:19:22;;;;;;;0.63;0.40;;;;;;;10.08;100.00;101539.97;2072008;28;20083;-70
2023/03/29 04:20:46;;;;;;;0.00;0.00;;;;;;;10.10;100.00;101537.38;2069224;28;20050;-70
2023/03/29 04:22:09;;;;;;;0.00;0.00;;;;;;;10.11;100.00;101540.03;2069250;28;20092;-70
2023/03/29 04:23:33;;;;;;;0.00;0.00;;;;;;;10.11;100.00;101555.84;2067962;28;20054;-70
2023/03/29 04:24:55;;;;;;;0.00;0.00;;;;;;;10.12;100.00;101546.19;2072143;28;20084;-70
2023/03/29 04:26:43;;;;;;;0.00;0.00;;;;;;;10.12;100.00;101539.19;2082812;28;20905;-70
2023/03/29 04:28:13;;;;;;;4.35;0.88;;;;;;;10.14;100.00;101550.69;2069116;28;20042;-70
2023/03/29 04:29:43;;;;;;;0.00;0.00;;;;;;;10.16;100.00;101564.84;2071300;28;20050;-70
2023/03/29 04:31:15;;;;;;;0.00;0.00;;;;;;;10.15;100.00;101546.31;2071296;28;20049;-71
2023/03/29 04:32:48;;;;;;;0.10;0.10;;;;;;;10.14;100.00;101568.25;2074281;28;20053;-70
2023/03/29 04:34:12;;;;;;;0.52;0.52;;;;;;;10.12;100.00;101557.66;2061894;28;20031;-70
2023/03/29 04:35:35;;;;;;;0.00;0.00;;;;;;;10.15;100.00;101546.31;2074098;28;20553;-70
2023/03/29 04:36:59;;;;;;;0.00;0.00;;;;;;;10.16;100.00;101572.75;2075499;28;20049;-70
2023/03/29 04:38:23;;;;;;;0.00;0.00;;;;;;;10.16;100.00;101562.19;2069556;28;20591;-71
2023/03/29 04:39:45;;;;;;;0.00;0.00;;;;;;;10.16;100.00;101550.75;2070623;28;20125;-70
2023/03/29 04:41:08;;;;;;;;;;;;;;;10.11;100.00;101570.81;2067109;28;20046;-70
2023/03/29 04:42:37;;;;;;;0.22;0.22;;;;;;;10.07;100.00;101580.38;2078047;28;19949;-70
2023/03/29 04:43:59;;;;;;;0.13;0.13;;;;;;;10.08;100.00;101555.78;2070209;28;20662;-70
2023/03/29 04:45:25;;;;;;;0.00;0.00;;;;;;;10.10;100.00;101566.38;2068037;28;20044;-70
2023/03/29 04:47:01;;;;;;;0.00;0.00;;;;;;;10.10;100.00;101575.19;2061209;28;20088;-70
2023/03/29 04:48:35;;;;;;;0.30;0.10;;;;;;;10.09;100.00;101576.03;2085735;28;20080;-69
2023/03/29 04:49:57;;;;;;;0.00;0.00;;;;;;;10.06;100.00;101570.66;2074144;28;20080;-70
2023/03/29 04:51:39;;;;;;;0.75;0.55;;;;;;;10.06;100.00;101594.41;2077180;28;20434;-70
2023/03/29 04:53:02;;;;;;;0.00;0.00;;;;;;;10.09;100.00;101591.88;2069308;28;20060;-70
2023/03/29 04:54:26;;;;;;;0.00;0.00;;;;;;;10.12;100.00;101585.78;2075515;28;20049;-70
2023/03/29 04:55:58;;;;;;;0.00;0.00;;;;;;;10.12;100.00;101588.41;2061698;28;20064;-70
2023/03/29 04:57:40;;;;;;;0.00;0.00;;;;;;;10.14;100.00;101598.19;2078876;28;20670;-70
2023/03/29 04:59:10;;;;;;;0.00;0.00;;;;;;;10.16;100.00;101596.50;2079104;28;20145;-70
2023/03/29 05:00:31;;;;;;;0.03;0.00;;;;;;;10.24;100.00;101592.34;2084505;28;20513;-70
2023/03/29 05:02:01;;;;;;;0.00;0.00;;;;;;;10.33;100.00;101599.66;2079335;28;20057;-70
2023/03/29 05:03:25;;;;;;;0.00;0.00;;;;;;;10.39;100.00;101590.19;2084158;28;20350;-69
2023/03/29 05:04:58;;;;;;;0.88;0.30;;;;;;;10.42;100.00;101607.88;2079374;28;20071;-70
2023/03/29 05:06:21;;;;;;;0.00;0.00;;;;;;;10.50;100.00;101616.00;2071661;28;20084;-70
2023/03/29 05:07:43;;;;;;;0.45;0.45;;;;;;;10.65;100.00;101613.81;2082051;28;20076;-70
2023/03/29 05:09:07;;;;;;;0.20;0.08;;;;;;;10.83;100.00;101610.81;2078753;28;20044;-70
2023/03/29 05:10:49;;;;;;;0.00;0.00;;;;;;;10.89;100.00;101606.59;2082313;28;20049;-70
2023/03/29 05:12:12;;;;;;;0.45;0.25;;;;;;;10.85;100.00;101595.88;2075761;28;20050;-70
2023/03/29 05:13:48;;;;;;;0.00;0.00;;;;;;;10.80;100.00;101587.84;2074534;28;20053;-70
2023/03/29 05:15:12;;;;;;;0.00;0.00;;;;;;;10.78;100.00;101605.38;2075941;28;20037;-70
2023/03/29 05:16:36;;;;;;;0.00;0.00;;;;;;;10.73;100.00;101607.91;2065908;28;20050;-70
2023/03/29 05:18:01;;;;;;;0.25;0.25;;;;;;;10.76;100.00;101607.09;2067010;28;20069;-70
2023/03/29 05:19:24;;;;;;;0.00;0.00;;;;;;;10.82;100.00;101615.19;2065648;28;20631;-71
2023/03/29 05:20:46;;;;;;;0.10;0.10;;;;;;;10.88;100.00;101611.81;2063664;28;20640;-70
2023/03/29 05:22:12;;;;;;;0.10;0.10;;;;;;;10.82;100.00;101631.03;2076251;28;20045;-70
2023/03/29 05:23:35;;;;;;;0.20;0.20;;;;;;;10.82;100.00;101630.16;2069938;28;20038;-70
2023/03/29 05:25:17;;;;;;;0.13;0.13;;;;;;;10.90;100.00;101632.13;2079765;28;20076;-70
2023/03/29 05:26:41;;;;;;;0.00;0.00;;;;;;;10.98;100.00;101633.25;2078037;28;20041;-70
2023/03/29 05:28:05;;;;;;;0.20;0.10;;;;;;;11.00;100.00;101639.47;2064395;28;20077;-70
2023/03/29 05:29:27;;;;;;;0.10;0.10;;;;;;;11.11;100.00;101648.59;2068930;28;20132;-70
2023/03/29 05:31:02;;;;;;;0.00;0.00;;;;;;;11.31;100.00;101642.94;2067860;28;20054;-69
2023/03/29 05:32:26;;;;;;;0.00;0.00;;;;;;;11.46;100.00;101624.84;2067651;28;20041;-70
2023/03/29 05:33:49;;;;;;;0.00;0.00;;;;;;;11.51;100.00;101625.84;2081356;28;20049;-70
2023/03/29 05:35:11;;;;;;;0.52;0.10;;;;;;;11.53;100.00;101642.66;2072317;28;20049;-70
2023/03/29 05:36:34;;;;;;;0.10;0.10;;;;;;;11.59;100.00;101656.94;2075447;28;20080;-69
2023/03/29 05:37:57;;;;;;;0.00;0.00;;;;;;;11.70;100.00;101651.00;2069326;28;20042;-70
2023/03/29 05:39:19;;;;;;;0.00;0.00;;;;;;;11.82;100.00;101644.31;2074832;28;20045;-70
2023/03/29 05:40:42;;;;;;;0.00;0.00;;;;;;;11.96;100.00;101644.66;2072862;28;20054;-70
2023/03/29 05:42:30;;;;;;;0.00;0.00;;;;;;;12.03;100.00;101648.34;2095273;28;20055;-70
2023/03/29 05:44:05;;;;;;;0.00;0.00;;;;;;;12.03;100.00;101651.88;2071180;28;20042;-70
2023/03/29 05:45:28;;;;;;;0.13;0.13;;;;;;;12.10;100.00;101666.16;2067424;28;20053;-69
2023/03/29 05:46:51;;;;;;;0.00;0.00;;;;;;;12.11;100.00;101657.34;2083764;28;20040;-70
2023/03/29 05:48:12;;;;;;;0.25;0.20;;;;;;;12.13;100.00;101671.53;2071986;28;20038;-69
2023/03/29 05:49:38;;;;;;;0.55;0.20;;;;;;;12.22;100.00;101647.91;2067485;28;20050;-69
2023/03/29 05:51:07;;;;;;;0.00;0.00;;;;;;;12.29;100.00;101663.06;2070710;28;20076;-70
2023/03/29 05:52:30;;;;;;;0.00;0.00;;;;;;;12.24;100.00;101655.03;2067511;28;20042;-70
2023/03/29 05:53:52;;;;;;;0.17;0.17;;;;;;;12.23;100.00;101660.28;2076283;28;20077;-70
2023/03/29 05:55:14;;;;;;;0.08;0.08;;;;;;;12.33;100.00;101657.00;2068127;28;20825;-70
2023/03/29 05:56:37;;;;;;;0.15;0.15;;;;;;;12.43;100.00;101643.09;2066871;28;20045;-70
2023/03/29 05:58:02;;;;;;;0.00;0.00;;;;;;;12.52;100.00;101664.50;2066879;28;20042;-70
2023/03/29 05:59:28;;;;;;;0.90;0.17;;;;;;;12.65;100.00;101665.66;2066770;28;20048;-70
2023/03/29 06:00:51;;;;;;;0.00;0.00;;;;;;;12.76;100.00;101665.03;2072272;28;20065;-69
2023/03/29 06:02:42;;;;;;;0.00;0.00;;;;;;;12.82;100.00;101648.34;2071317;28;20506;-70
2023/03/29 06:04:05;;;;;;;0.00;0.00;;;;;;;12.87;100.00;101662.59;2068352;28;20057;-70
2023/03/29 06:05:35;;;;;;;0.00;0.00;;;;;;;13.00;100.00;101656.66;2068378;28;20143;-70
2023/03/29 06:06:59;;;;;;;0.00;0.00;;;;;;;12.95;100.00;101663.63;2074959;28;20053;-70
2023/03/29 06:08:22;;;;;;;1.70;0.45;;;;;;;12.77;100.00;101680.06;2094289;28;20079;-70
2023/03/29 06:10:12;;;;;;;0.10;0.10;;;;;;;12.48;100.00;101681.16;2059171;28;20045;-70
2023/03/29 06:11:39;;;;;;;0.00;0.00;;;;;;;12.44;100.00;101689.00;2069283;28;20045;-70
2023/03/29 06:13:28;;;;;;;0.35;0.35;;;;;;;12.28;100.00;101688.66;2088099;28;20049;-70
2023/03/29 06:14:50;;;;;;;0.55;0.47;;;;;;;12.35;100.00;101694.97;2075829;28;20439;-70
2023/03/29 06:16:29;;;;;;;0.20;0.20;;;;;;;12.49;100.00;101685.59;2071585;28;20049;-70
2023/03/29 06:17:51;;;;;;;0.00;0.00;;;;;;;12.56;98.41;101666.34;2065939;28;20092;-70
2023/03/29 06:19:14;;;;;;;0.10;0.10;;;;;;;12.63;98.48;101675.31;2073161;28;20096;-70
2023/03/29 06:20:36;;;;;;;0.00;0.00;;;;;;;12.58;97.39;101695.53;2069311;28;20069;-70
2023/03/29 06:22:04;;;;;;;0.00;0.00;;;;;;;12.49;97.56;101682.97;2075633;28;20080;-70
2023/03/29 06:23:29;;;;;;;0.20;0.20;;;;;;;12.49;97.79;101677.66;2068786;28;20053;-70
2023/03/29 06:24:51;;;;;;;1.08;0.45;;;;;;;12.62;94.99;101685.03;2074438;28;20045;-70
2023/03/29 06:26:20;;;;;;;0.70;0.20;;;;;;;12.78;94.18;101703.06;2083879;28;20048;-70
2023/03/29 06:27:45;;;;;;;0.40;0.40;;;;;;;12.94;94.69;101674.19;2068350;28;20407;-71
2023/03/29 06:29:11;;;;;;;0.65;0.43;;;;;;;13.05;89.80;101664.75;2075539;28;20057;-70
2023/03/29 06:30:36;;;;;;;0.10;0.10;;;;;;;13.12;89.23;101699.38;2068816;28;20038;-70
2023/03/29 06:31:57;;;;;;;0.00;0.00;;;;;;;13.25;89.68;101700.53;2073755;28;20529;-70
2023/03/29 06:33:39;;;;;;;0.35;0.35;;;;;;;13.32;88.17;101667.97;2069342;28;20144;-70
2023/03/29 06:35:20;;;;;;;0.00;0.00;;;;;;;13.40;88.18;101695.50;2090248;28;20156;-70
2023/03/29 06:36:50;;;;;;;0.00;0.00;;;;;;;13.57;88.74;101703.78;2081248;28;20059;-70
2023/03/29 06:38:16;;;;;;;0.00;0.00;;;;;;;13.67;84.97;101702.19;2071624;28;20418;-71
2023/03/29 06:39:55;;;;;;;0.00;0.00;;;;;;;13.63;84.83;101697.69;2071155;28;20042;-70
2023/03/29 06:41:23;;;;;;;0.00;0.00;;;;;;;13.74;85.33;101714.69;2076613;28;20163;-71